sensor_id;sensor_type;location;lat;lon;timestamp;P1;durP1;ratioP1;P2;durP2;ratioP2
72882;SDS011;61017;37.812;-122.286;2023-05-07T00:00:34;5.00;;;1.90;;
72882;SDS011;61017;37.812;-122.286;2023-05-07T00:02:06;6.53;;;2.10;;
72882;SDS011;61017;37.812;-122.286;2023-05-07T00:03:37;4.53;;;1.83;;
72882;SDS011;61017;37.812;-122.286;2023-05-07T00:05:10;4.22;;;1.92;;
72882;SDS011;61017;37.812;-122.286;2023-05-07T00:06:42;2.30;;;1.60;;
72882;SDS011;61017;37.812;-122.286;2023-05-07T00:08:14;5.07;;;2.20;;
72882;SDS011;61017;37.812;-122.286;2023-05-07T00:09:45;4.03;;;2.20;;
72882;SDS011;61017;37.812;-122.286;2023-05-07T00:11:17;5.88;;;2.20;;
72882;SDS011;61017;37.812;-122.286;2023-05-07T00:12:51;3.63;;;2.08;;
72882;SDS011;61017;37.812;-122.286;2023-05-07T00:14:26;3.05;;;1.90;;
72882;SDS011;61017;37.812;-122.286;2023-05-07T00:17:47;4.10;;;1.80;;
72882;SDS011;61017;37.812;-122.286;2023-05-07T00:19:19;4.63;;;2.20;;
72882;SDS011;61017;37.812;-122.286;2023-05-07T00:20:51;3.10;;;2.00;;
72882;SDS011;61017;37.812;-122.286;2023-05-07T00:22:22;3.90;;;1.90;;
72882;SDS011;61017;37.812;-122.286;2023-05-07T00:23:54;3.55;;;1.98;;
72882;SDS011;61017;37.812;-122.286;2023-05-07T00:25:26;2.83;;;1.88;;
72882;SDS011;61017;37.812;-122.286;2023-05-07T00:26:57;3.67;;;2.00;;
72882;SDS011;61017;37.812;-122.286;2023-05-07T00:28:29;4.38;;;2.25;;
72882;SDS011;61017;37.812;-122.286;2023-05-07T00:30:00;4.28;;;1.90;;
72882;SDS011;61017;37.812;-122.286;2023-05-07T00:31:32;3.47;;;2.00;;
72882;SDS011;61017;37.812;-122.286;2023-05-07T00:33:04;3.88;;;1.95;;
72882;SDS011;61017;37.812;-122.286;2023-05-07T00:34:35;3.97;;;2.10;;
72882;SDS011;61017;37.812;-122.286;2023-05-07T00:36:07;2.83;;;2.10;;
72882;SDS011;61017;37.812;-122.286;2023-05-07T00:37:39;4.35;;;2.08;;
72882;SDS011;61017;37.812;-122.286;2023-05-07T00:39:10;3.45;;;1.90;;
72882;SDS011;61017;37.812;-122.286;2023-05-07T00:40:42;3.08;;;1.90;;
72882;SDS011;61017;37.812;-122.286;2023-05-07T00:42:13;4.03;;;1.73;;
72882;SDS011;61017;37.812;-122.286;2023-05-07T00:43:45;4.45;;;2.00;;
72882;SDS011;61017;37.812;-122.286;2023-05-07T00:45:16;2.40;;;1.80;;
72882;SDS011;61017;37.812;-122.286;2023-05-07T00:46:49;3.42;;;1.95;;
72882;SDS011;61017;37.812;-122.286;2023-05-07T00:48:20;3.53;;;1.80;;
72882;SDS011;61017;37.812;-122.286;2023-05-07T00:49:52;5.60;;;2.00;;
72882;SDS011;61017;37.812;-122.286;2023-05-07T00:51:25;4.20;;;2.08;;
72882;SDS011;61017;37.812;-122.286;2023-05-07T00:52:57;2.78;;;2.00;;
72882;SDS011;61017;37.812;-122.286;2023-05-07T00:54:29;2.97;;;1.77;;
72882;SDS011;61017;37.812;-122.286;2023-05-07T00:56:00;3.65;;;1.70;;
72882;SDS011;61017;37.812;-122.286;2023-05-07T00:57:34;3.85;;;1.90;;
72882;SDS011;61017;37.812;-122.286;2023-05-07T00:59:07;2.55;;;1.52;;
72882;SDS011;61017;37.812;-122.286;2023-05-07T01:00:39;3.22;;;2.03;;
72882;SDS011;61017;37.812;-122.286;2023-05-07T01:02:11;3.63;;;1.92;;
72882;SDS011;61017;37.812;-122.286;2023-05-07T01:03:42;3.35;;;1.90;;
72882;SDS011;61017;37.812;-122.286;2023-05-07T01:05:15;2.72;;;1.70;;
72882;SDS011;61017;37.812;-122.286;2023-05-07T01:06:49;2.78;;;1.75;;
72882;SDS011;61017;37.812;-122.286;2023-05-07T01:08:21;4.20;;;2.03;;
72882;SDS011;61017;37.812;-122.286;2023-05-07T01:09:53;3.20;;;1.75;;
72882;SDS011;61017;37.812;-122.286;2023-05-07T01:11:25;5.05;;;2.15;;
72882;SDS011;61017;37.812;-122.286;2023-05-07T01:12:57;3.00;;;1.92;;
72882;SDS011;61017;37.812;-122.286;2023-05-07T01:16:02;4.63;;;1.80;;
72882;SDS011;61017;37.812;-122.286;2023-05-07T01:17:37;4.90;;;2.00;;
72882;SDS011;61017;37.812;-122.286;2023-05-07T01:19:11;4.22;;;2.03;;
72882;SDS011;61017;37.812;-122.286;2023-05-07T01:20:43;4.03;;;1.90;;
72882;SDS011;61017;37.812;-122.286;2023-05-07T01:22:16;2.92;;;2.00;;
72882;SDS011;61017;37.812;-122.286;2023-05-07T01:23:53;2.85;;;1.92;;
72882;SDS011;61017;37.812;-122.286;2023-05-07T01:25:25;4.60;;;2.05;;
72882;SDS011;61017;37.812;-122.286;2023-05-07T01:26:57;3.20;;;1.90;;
72882;SDS011;61017;37.812;-122.286;2023-05-07T01:28:29;3.67;;;1.92;;
72882;SDS011;61017;37.812;-122.286;2023-05-07T01:30:01;3.38;;;2.05;;
72882;SDS011;61017;37.812;-122.286;2023-05-07T01:31:33;2.58;;;1.70;;
72882;SDS011;61017;37.812;-122.286;2023-05-07T01:33:08;3.75;;;2.00;;
72882;SDS011;61017;37.812;-122.286;2023-05-07T01:34:41;3.92;;;2.15;;
72882;SDS011;61017;37.812;-122.286;2023-05-07T01:36:14;2.97;;;2.08;;
72882;SDS011;61017;37.812;-122.286;2023-05-07T01:37:47;4.00;;;1.92;;
72882;SDS011;61017;37.812;-122.286;2023-05-07T01:39:20;3.13;;;1.80;;
72882;SDS011;61017;37.812;-122.286;2023-05-07T01:40:53;3.75;;;2.00;;
72882;SDS011;61017;37.812;-122.286;2023-05-07T01:42:26;4.28;;;1.70;;
72882;SDS011;61017;37.812;-122.286;2023-05-07T01:43:57;3.65;;;1.90;;
72882;SDS011;61017;37.812;-122.286;2023-05-07T01:45:32;2.97;;;1.80;;
72882;SDS011;61017;37.812;-122.286;2023-05-07T01:47:05;2.55;;;1.70;;
72882;SDS011;61017;37.812;-122.286;2023-05-07T01:48:37;3.03;;;1.98;;
72882;SDS011;61017;37.812;-122.286;2023-05-07T01:50:09;3.03;;;1.90;;
72882;SDS011;61017;37.812;-122.286;2023-05-07T01:51:41;4.50;;;1.70;;
72882;SDS011;61017;37.812;-122.286;2023-05-07T01:53:13;3.67;;;1.87;;
72882;SDS011;61017;37.812;-122.286;2023-05-07T01:54:45;2.75;;;1.60;;
72882;SDS011;61017;37.812;-122.286;2023-05-07T01:56:19;3.50;;;1.73;;
72882;SDS011;61017;37.812;-122.286;2023-05-07T01:57:51;3.85;;;1.90;;
72882;SDS011;61017;37.812;-122.286;2023-05-07T02:01:32;2.95;;;1.95;;
72882;SDS011;61017;37.812;-122.286;2023-05-07T02:05:40;2.60;;;1.90;;
72882;SDS011;61017;37.812;-122.286;2023-05-07T02:07:14;3.78;;;2.00;;
72882;SDS011;61017;37.812;-122.286;2023-05-07T02:08:46;3.45;;;1.98;;
72882;SDS011;61017;37.812;-122.286;2023-05-07T02:10:18;3.45;;;2.00;;
72882;SDS011;61017;37.812;-122.286;2023-05-07T02:11:50;3.05;;;1.90;;
72882;SDS011;61017;37.812;-122.286;2023-05-07T02:13:21;4.18;;;1.92;;
72882;SDS011;61017;37.812;-122.286;2023-05-07T02:14:53;3.78;;;2.08;;
72882;SDS011;61017;37.812;-122.286;2023-05-07T02:16:24;3.95;;;2.10;;
72882;SDS011;61017;37.812;-122.286;2023-05-07T02:19:38;3.15;;;1.95;;
72882;SDS011;61017;37.812;-122.286;2023-05-07T02:21:10;2.55;;;1.80;;
72882;SDS011;61017;37.812;-122.286;2023-05-07T02:22:42;4.75;;;1.90;;
72882;SDS011;61017;37.812;-122.286;2023-05-07T02:24:14;2.47;;;1.70;;
72882;SDS011;61017;37.812;-122.286;2023-05-07T02:25:49;3.90;;;2.30;;
72882;SDS011;61017;37.812;-122.286;2023-05-07T02:27:20;3.60;;;1.77;;
72882;SDS011;61017;37.812;-122.286;2023-05-07T02:28:52;3.60;;;1.92;;
72882;SDS011;61017;37.812;-122.286;2023-05-07T02:30:24;4.68;;;1.95;;
72882;SDS011;61017;37.812;-122.286;2023-05-07T02:31:56;3.25;;;1.73;;
72882;SDS011;61017;37.812;-122.286;2023-05-07T02:33:27;4.07;;;1.73;;
72882;SDS011;61017;37.812;-122.286;2023-05-07T02:34:59;3.97;;;1.80;;
72882;SDS011;61017;37.812;-122.286;2023-05-07T02:36:30;3.42;;;1.88;;
72882;SDS011;61017;37.812;-122.286;2023-05-07T02:38:02;4.15;;;2.22;;
72882;SDS011;61017;37.812;-122.286;2023-05-07T02:39:34;2.72;;;1.80;;
72882;SDS011;61017;37.812;-122.286;2023-05-07T02:41:05;2.40;;;1.88;;
72882;SDS011;61017;37.812;-122.286;2023-05-07T02:42:37;3.70;;;1.70;;
72882;SDS011;61017;37.812;-122.286;2023-05-07T02:44:09;3.22;;;2.00;;
72882;SDS011;61017;37.812;-122.286;2023-05-07T02:45:41;3.72;;;1.90;;
72882;SDS011;61017;37.812;-122.286;2023-05-07T02:47:16;2.80;;;1.73;;
72882;SDS011;61017;37.812;-122.286;2023-05-07T02:48:48;2.38;;;1.75;;
72882;SDS011;61017;37.812;-122.286;2023-05-07T02:50:19;3.42;;;2.20;;
72882;SDS011;61017;37.812;-122.286;2023-05-07T02:51:51;2.90;;;2.08;;
72882;SDS011;61017;37.812;-122.286;2023-05-07T02:53:22;3.17;;;1.80;;
72882;SDS011;61017;37.812;-122.286;2023-05-07T02:54:54;2.60;;;1.70;;
72882;SDS011;61017;37.812;-122.286;2023-05-07T02:56:26;3.95;;;2.10;;
72882;SDS011;61017;37.812;-122.286;2023-05-07T02:57:57;3.03;;;2.05;;
72882;SDS011;61017;37.812;-122.286;2023-05-07T02:59:29;4.22;;;2.05;;
72882;SDS011;61017;37.812;-122.286;2023-05-07T03:01:01;3.38;;;2.00;;
72882;SDS011;61017;37.812;-122.286;2023-05-07T03:02:32;3.28;;;2.20;;
72882;SDS011;61017;37.812;-122.286;2023-05-07T03:04:04;4.07;;;1.90;;
72882;SDS011;61017;37.812;-122.286;2023-05-07T03:05:35;3.80;;;2.08;;
72882;SDS011;61017;37.812;-122.286;2023-05-07T03:07:07;2.33;;;1.63;;
72882;SDS011;61017;37.812;-122.286;2023-05-07T03:08:42;5.03;;;2.30;;
72882;SDS011;61017;37.812;-122.286;2023-05-07T03:10:17;2.72;;;2.00;;
72882;SDS011;61017;37.812;-122.286;2023-05-07T03:11:53;4.05;;;2.00;;
72882;SDS011;61017;37.812;-122.286;2023-05-07T03:13:25;3.85;;;2.17;;
72882;SDS011;61017;37.812;-122.286;2023-05-07T03:14:57;3.15;;;1.80;;
72882;SDS011;61017;37.812;-122.286;2023-05-07T03:16:31;2.50;;;1.70;;
72882;SDS011;61017;37.812;-122.286;2023-05-07T03:18:03;2.90;;;1.92;;
72882;SDS011;61017;37.812;-122.286;2023-05-07T03:19:35;2.60;;;1.92;;
72882;SDS011;61017;37.812;-122.286;2023-05-07T03:21:09;3.95;;;2.13;;
72882;SDS011;61017;37.812;-122.286;2023-05-07T03:22:43;3.90;;;2.00;;
72882;SDS011;61017;37.812;-122.286;2023-05-07T03:24:15;3.10;;;2.00;;
72882;SDS011;61017;37.812;-122.286;2023-05-07T03:25:47;3.67;;;2.10;;
72882;SDS011;61017;37.812;-122.286;2023-05-07T03:27:19;3.42;;;1.92;;
72882;SDS011;61017;37.812;-122.286;2023-05-07T03:28:54;2.83;;;1.92;;
72882;SDS011;61017;37.812;-122.286;2023-05-07T03:30:25;2.83;;;1.70;;
72882;SDS011;61017;37.812;-122.286;2023-05-07T03:31:57;2.75;;;1.90;;
72882;SDS011;61017;37.812;-122.286;2023-05-07T03:33:28;2.90;;;1.75;;
72882;SDS011;61017;37.812;-122.286;2023-05-07T03:35:00;3.50;;;1.90;;
72882;SDS011;61017;37.812;-122.286;2023-05-07T03:36:35;3.38;;;2.05;;
72882;SDS011;61017;37.812;-122.286;2023-05-07T03:38:07;3.35;;;1.92;;
72882;SDS011;61017;37.812;-122.286;2023-05-07T03:39:38;2.40;;;1.80;;
72882;SDS011;61017;37.812;-122.286;2023-05-07T03:41:11;3.45;;;1.77;;
72882;SDS011;61017;37.812;-122.286;2023-05-07T03:44:14;2.90;;;1.80;;
72882;SDS011;61017;37.812;-122.286;2023-05-07T03:45:45;2.90;;;1.80;;
72882;SDS011;61017;37.812;-122.286;2023-05-07T03:47:17;2.47;;;1.63;;
72882;SDS011;61017;37.812;-122.286;2023-05-07T03:48:49;4.60;;;2.10;;
72882;SDS011;61017;37.812;-122.286;2023-05-07T03:50:20;2.70;;;1.75;;
72882;SDS011;61017;37.812;-122.286;2023-05-07T03:51:52;4.05;;;1.90;;
72882;SDS011;61017;37.812;-122.286;2023-05-07T03:53:23;2.83;;;1.88;;
72882;SDS011;61017;37.812;-122.286;2023-05-07T03:54:55;3.15;;;1.70;;
72882;SDS011;61017;37.812;-122.286;2023-05-07T03:56:27;2.80;;;1.60;;
72882;SDS011;61017;37.812;-122.286;2023-05-07T03:57:58;2.70;;;1.65;;
72882;SDS011;61017;37.812;-122.286;2023-05-07T03:59:30;2.83;;;1.70;;
72882;SDS011;61017;37.812;-122.286;2023-05-07T04:01:01;2.47;;;1.70;;
72882;SDS011;61017;37.812;-122.286;2023-05-07T04:02:34;3.72;;;1.95;;
72882;SDS011;61017;37.812;-122.286;2023-05-07T04:04:06;3.47;;;1.70;;
72882;SDS011;61017;37.812;-122.286;2023-05-07T04:05:37;2.45;;;1.75;;
72882;SDS011;61017;37.812;-122.286;2023-05-07T04:07:13;4.18;;;1.58;;
72882;SDS011;61017;37.812;-122.286;2023-05-07T04:08:44;3.17;;;1.70;;
72882;SDS011;61017;37.812;-122.286;2023-05-07T04:10:16;3.13;;;1.60;;
72882;SDS011;61017;37.812;-122.286;2023-05-07T04:11:47;2.80;;;1.60;;
72882;SDS011;61017;37.812;-122.286;2023-05-07T04:13:19;3.45;;;1.77;;
72882;SDS011;61017;37.812;-122.286;2023-05-07T04:14:50;2.00;;;1.40;;
72882;SDS011;61017;37.812;-122.286;2023-05-07T04:16:22;3.33;;;1.70;;
72882;SDS011;61017;37.812;-122.286;2023-05-07T04:17:54;2.97;;;1.75;;
72882;SDS011;61017;37.812;-122.286;2023-05-07T04:19:25;2.83;;;1.65;;
72882;SDS011;61017;37.812;-122.286;2023-05-07T04:20:57;2.97;;;1.60;;
72882;SDS011;61017;37.812;-122.286;2023-05-07T04:22:28;4.75;;;1.83;;
72882;SDS011;61017;37.812;-122.286;2023-05-07T04:24:00;3.42;;;2.00;;
72882;SDS011;61017;37.812;-122.286;2023-05-07T04:25:36;4.32;;;1.80;;
72882;SDS011;61017;37.812;-122.286;2023-05-07T04:27:10;3.55;;;1.70;;
72882;SDS011;61017;37.812;-122.286;2023-05-07T04:28:44;3.17;;;1.70;;
72882;SDS011;61017;37.812;-122.286;2023-05-07T04:30:15;4.00;;;1.75;;
72882;SDS011;61017;37.812;-122.286;2023-05-07T04:31:47;2.13;;;1.70;;
72882;SDS011;61017;37.812;-122.286;2023-05-07T04:33:19;3.22;;;1.50;;
72882;SDS011;61017;37.812;-122.286;2023-05-07T04:34:50;3.17;;;1.45;;
72882;SDS011;61017;37.812;-122.286;2023-05-07T04:36:22;3.60;;;1.60;;
72882;SDS011;61017;37.812;-122.286;2023-05-07T04:37:54;3.08;;;1.70;;
72882;SDS011;61017;37.812;-122.286;2023-05-07T04:39:26;2.53;;;1.67;;
72882;SDS011;61017;37.812;-122.286;2023-05-07T04:41:02;3.83;;;1.80;;
72882;SDS011;61017;37.812;-122.286;2023-05-07T04:42:34;4.05;;;1.60;;
72882;SDS011;61017;37.812;-122.286;2023-05-07T04:44:24;2.53;;;1.58;;
72882;SDS011;61017;37.812;-122.286;2023-05-07T04:45:55;2.67;;;1.52;;
72882;SDS011;61017;37.812;-122.286;2023-05-07T04:47:27;3.65;;;1.45;;
72882;SDS011;61017;37.812;-122.286;2023-05-07T04:48:58;2.60;;;1.42;;
72882;SDS011;61017;37.812;-122.286;2023-05-07T04:50:30;2.92;;;1.50;;
72882;SDS011;61017;37.812;-122.286;2023-05-07T04:52:02;2.40;;;1.40;;
72882;SDS011;61017;37.812;-122.286;2023-05-07T04:53:38;4.93;;;1.50;;
72882;SDS011;61017;37.812;-122.286;2023-05-07T04:55:09;3.47;;;1.67;;
72882;SDS011;61017;37.812;-122.286;2023-05-07T04:56:41;2.75;;;1.45;;
72882;SDS011;61017;37.812;-122.286;2023-05-07T04:58:13;3.13;;;1.42;;
72882;SDS011;61017;37.812;-122.286;2023-05-07T04:59:44;5.07;;;1.70;;
72882;SDS011;61017;37.812;-122.286;2023-05-07T05:01:16;2.45;;;1.40;;
72882;SDS011;61017;37.812;-122.286;2023-05-07T05:02:47;2.05;;;1.40;;
72882;SDS011;61017;37.812;-122.286;2023-05-07T05:04:19;3.45;;;1.60;;
72882;SDS011;61017;37.812;-122.286;2023-05-07T05:05:51;3.42;;;1.50;;
72882;SDS011;61017;37.812;-122.286;2023-05-07T05:07:23;4.18;;;1.48;;
72882;SDS011;61017;37.812;-122.286;2023-05-07T05:08:54;3.53;;;1.50;;
72882;SDS011;61017;37.812;-122.286;2023-05-07T05:10:28;3.33;;;1.50;;
72882;SDS011;61017;37.812;-122.286;2023-05-07T05:12:03;3.80;;;1.73;;
72882;SDS011;61017;37.812;-122.286;2023-05-07T05:13:35;2.53;;;1.50;;
72882;SDS011;61017;37.812;-122.286;2023-05-07T05:15:07;2.92;;;1.40;;
72882;SDS011;61017;37.812;-122.286;2023-05-07T05:16:39;2.90;;;1.60;;
72882;SDS011;61017;37.812;-122.286;2023-05-07T05:18:10;3.88;;;1.65;;
72882;SDS011;61017;37.812;-122.286;2023-05-07T05:19:42;2.72;;;1.58;;
72882;SDS011;61017;37.812;-122.286;2023-05-07T05:21:14;2.35;;;1.48;;
72882;SDS011;61017;37.812;-122.286;2023-05-07T05:22:45;3.25;;;1.60;;
72882;SDS011;61017;37.812;-122.286;2023-05-07T05:24:17;3.83;;;1.40;;
72882;SDS011;61017;37.812;-122.286;2023-05-07T05:25:49;3.10;;;1.60;;
72882;SDS011;61017;37.812;-122.286;2023-05-07T05:27:20;3.03;;;1.52;;
72882;SDS011;61017;37.812;-122.286;2023-05-07T05:28:52;3.50;;;1.60;;
72882;SDS011;61017;37.812;-122.286;2023-05-07T05:30:26;2.55;;;1.65;;
72882;SDS011;61017;37.812;-122.286;2023-05-07T05:31:57;3.03;;;1.60;;
72882;SDS011;61017;37.812;-122.286;2023-05-07T05:33:32;2.50;;;1.40;;
72882;SDS011;61017;37.812;-122.286;2023-05-07T05:35:07;3.47;;;1.60;;
72882;SDS011;61017;37.812;-122.286;2023-05-07T05:36:39;3.97;;;1.60;;
72882;SDS011;61017;37.812;-122.286;2023-05-07T05:38:10;3.10;;;1.50;;
72882;SDS011;61017;37.812;-122.286;2023-05-07T05:39:42;3.75;;;1.80;;
72882;SDS011;61017;37.812;-122.286;2023-05-07T05:41:13;3.38;;;1.70;;
72882;SDS011;61017;37.812;-122.286;2023-05-07T05:42:45;4.20;;;1.52;;
72882;SDS011;61017;37.812;-122.286;2023-05-07T05:44:24;3.05;;;1.45;;
72882;SDS011;61017;37.812;-122.286;2023-05-07T05:45:56;4.38;;;1.52;;
72882;SDS011;61017;37.812;-122.286;2023-05-07T05:47:28;3.23;;;1.60;;
72882;SDS011;61017;37.812;-122.286;2023-05-07T05:49:00;2.63;;;1.60;;
72882;SDS011;61017;37.812;-122.286;2023-05-07T05:50:32;4.50;;;1.52;;
72882;SDS011;61017;37.812;-122.286;2023-05-07T05:52:03;2.90;;;1.55;;
72882;SDS011;61017;37.812;-122.286;2023-05-07T05:53:35;3.60;;;1.50;;
72882;SDS011;61017;37.812;-122.286;2023-05-07T05:55:07;4.18;;;1.83;;
72882;SDS011;61017;37.812;-122.286;2023-05-07T05:56:41;3.23;;;1.70;;
72882;SDS011;61017;37.812;-122.286;2023-05-07T05:58:13;3.80;;;1.60;;
72882;SDS011;61017;37.812;-122.286;2023-05-07T05:59:45;3.05;;;1.50;;
72882;SDS011;61017;37.812;-122.286;2023-05-07T06:01:39;4.20;;;1.58;;
72882;SDS011;61017;37.812;-122.286;2023-05-07T06:03:10;2.53;;;1.55;;
72882;SDS011;61017;37.812;-122.286;2023-05-07T06:04:42;2.20;;;1.50;;
72882;SDS011;61017;37.812;-122.286;2023-05-07T06:06:13;3.35;;;1.85;;
72882;SDS011;61017;37.812;-122.286;2023-05-07T06:07:45;4.07;;;1.80;;
72882;SDS011;61017;37.812;-122.286;2023-05-07T06:09:17;2.88;;;1.48;;
72882;SDS011;61017;37.812;-122.286;2023-05-07T06:10:48;2.92;;;1.58;;
72882;SDS011;61017;37.812;-122.286;2023-05-07T06:12:20;3.00;;;1.63;;
72882;SDS011;61017;37.812;-122.286;2023-05-07T06:13:52;2.58;;;1.52;;
72882;SDS011;61017;37.812;-122.286;2023-05-07T06:15:23;3.30;;;1.60;;
72882;SDS011;61017;37.812;-122.286;2023-05-07T06:16:55;3.17;;;1.52;;
72882;SDS011;61017;37.812;-122.286;2023-05-07T06:18:27;4.20;;;1.80;;
72882;SDS011;61017;37.812;-122.286;2023-05-07T06:20:01;2.75;;;1.60;;
72882;SDS011;61017;37.812;-122.286;2023-05-07T06:21:33;3.67;;;1.52;;
72882;SDS011;61017;37.812;-122.286;2023-05-07T06:23:05;2.88;;;1.70;;
72882;SDS011;61017;37.812;-122.286;2023-05-07T06:24:37;3.47;;;1.80;;
72882;SDS011;61017;37.812;-122.286;2023-05-07T06:26:08;4.03;;;1.77;;
72882;SDS011;61017;37.812;-122.286;2023-05-07T06:27:41;4.07;;;1.70;;
72882;SDS011;61017;37.812;-122.286;2023-05-07T06:29:13;2.63;;;1.73;;
72882;SDS011;61017;37.812;-122.286;2023-05-07T06:30:47;3.67;;;1.60;;
72882;SDS011;61017;37.812;-122.286;2023-05-07T06:32:18;5.30;;;1.70;;
72882;SDS011;61017;37.812;-122.286;2023-05-07T06:33:50;5.53;;;1.88;;
72882;SDS011;61017;37.812;-122.286;2023-05-07T06:35:22;4.90;;;1.60;;
72882;SDS011;61017;37.812;-122.286;2023-05-07T06:36:53;4.88;;;1.60;;
72882;SDS011;61017;37.812;-122.286;2023-05-07T06:38:25;3.33;;;1.70;;
72882;SDS011;61017;37.812;-122.286;2023-05-07T06:39:56;3.40;;;1.65;;
72882;SDS011;61017;37.812;-122.286;2023-05-07T06:41:28;3.45;;;1.60;;
72882;SDS011;61017;37.812;-122.286;2023-05-07T06:43:01;4.50;;;1.80;;
72882;SDS011;61017;37.812;-122.286;2023-05-07T06:44:34;3.83;;;1.90;;
72882;SDS011;61017;37.812;-122.286;2023-05-07T06:46:06;4.95;;;1.70;;
72882;SDS011;61017;37.812;-122.286;2023-05-07T06:47:38;2.65;;;1.60;;
72882;SDS011;61017;37.812;-122.286;2023-05-07T06:49:09;4.07;;;1.90;;
72882;SDS011;61017;37.812;-122.286;2023-05-07T06:52:16;3.35;;;1.70;;
72882;SDS011;61017;37.812;-122.286;2023-05-07T06:53:48;2.90;;;1.90;;
72882;SDS011;61017;37.812;-122.286;2023-05-07T06:55:19;4.68;;;1.80;;
72882;SDS011;61017;37.812;-122.286;2023-05-07T06:56:51;3.78;;;1.85;;
72882;SDS011;61017;37.812;-122.286;2023-05-07T06:58:23;5.00;;;1.70;;
72882;SDS011;61017;37.812;-122.286;2023-05-07T06:59:54;4.07;;;1.85;;
72882;SDS011;61017;37.812;-122.286;2023-05-07T07:01:26;5.53;;;1.95;;
72882;SDS011;61017;37.812;-122.286;2023-05-07T07:02:57;3.25;;;1.83;;
72882;SDS011;61017;37.812;-122.286;2023-05-07T07:04:29;3.75;;;1.80;;
72882;SDS011;61017;37.812;-122.286;2023-05-07T07:06:01;5.65;;;2.13;;
72882;SDS011;61017;37.812;-122.286;2023-05-07T07:07:33;3.35;;;1.85;;
72882;SDS011;61017;37.812;-122.286;2023-05-07T07:09:04;4.03;;;1.70;;
72882;SDS011;61017;37.812;-122.286;2023-05-07T07:10:36;3.95;;;1.98;;
72882;SDS011;61017;37.812;-122.286;2023-05-07T07:12:07;4.07;;;2.00;;
72882;SDS011;61017;37.812;-122.286;2023-05-07T07:13:39;3.85;;;1.70;;
72882;SDS011;61017;37.812;-122.286;2023-05-07T07:15:11;3.95;;;1.85;;
72882;SDS011;61017;37.812;-122.286;2023-05-07T07:16:43;5.82;;;2.00;;
72882;SDS011;61017;37.812;-122.286;2023-05-07T07:18:15;3.75;;;1.90;;
72882;SDS011;61017;37.812;-122.286;2023-05-07T07:19:47;3.65;;;1.85;;
72882;SDS011;61017;37.812;-122.286;2023-05-07T07:21:19;3.65;;;1.80;;
72882;SDS011;61017;37.812;-122.286;2023-05-07T07:22:51;3.10;;;1.65;;
72882;SDS011;61017;37.812;-122.286;2023-05-07T07:24:23;3.42;;;1.80;;
72882;SDS011;61017;37.812;-122.286;2023-05-07T07:25:54;3.97;;;1.98;;
72882;SDS011;61017;37.812;-122.286;2023-05-07T07:27:26;3.10;;;1.70;;
72882;SDS011;61017;37.812;-122.286;2023-05-07T07:28:57;5.10;;;1.90;;
72882;SDS011;61017;37.812;-122.286;2023-05-07T07:30:29;3.42;;;2.10;;
72882;SDS011;61017;37.812;-122.286;2023-05-07T07:32:04;3.53;;;1.95;;
72882;SDS011;61017;37.812;-122.286;2023-05-07T07:33:35;4.68;;;1.95;;
72882;SDS011;61017;37.812;-122.286;2023-05-07T07:35:07;3.42;;;1.77;;
72882;SDS011;61017;37.812;-122.286;2023-05-07T07:36:39;3.83;;;2.08;;
72882;SDS011;61017;37.812;-122.286;2023-05-07T07:38:11;5.28;;;2.10;;
72882;SDS011;61017;37.812;-122.286;2023-05-07T07:39:43;3.13;;;1.92;;
72882;SDS011;61017;37.812;-122.286;2023-05-07T07:41:14;4.30;;;2.10;;
72882;SDS011;61017;37.812;-122.286;2023-05-07T07:42:46;5.55;;;2.08;;
72882;SDS011;61017;37.812;-122.286;2023-05-07T07:44:18;4.53;;;1.95;;
72882;SDS011;61017;37.812;-122.286;2023-05-07T07:45:49;3.97;;;1.90;;
72882;SDS011;61017;37.812;-122.286;2023-05-07T07:47:23;3.63;;;1.90;;
72882;SDS011;61017;37.812;-122.286;2023-05-07T07:48:55;3.78;;;2.00;;
72882;SDS011;61017;37.812;-122.286;2023-05-07T07:50:26;3.55;;;1.92;;
72882;SDS011;61017;37.812;-122.286;2023-05-07T07:51:58;3.97;;;2.15;;
72882;SDS011;61017;37.812;-122.286;2023-05-07T07:53:32;3.80;;;1.90;;
72882;SDS011;61017;37.812;-122.286;2023-05-07T07:55:05;3.90;;;2.10;;
72882;SDS011;61017;37.812;-122.286;2023-05-07T07:56:39;2.83;;;1.80;;
72882;SDS011;61017;37.812;-122.286;2023-05-07T07:58:11;4.95;;;2.45;;
72882;SDS011;61017;37.812;-122.286;2023-05-07T07:59:43;5.53;;;2.10;;
72882;SDS011;61017;37.812;-122.286;2023-05-07T08:01:14;4.78;;;1.70;;
72882;SDS011;61017;37.812;-122.286;2023-05-07T08:02:46;5.95;;;2.10;;
72882;SDS011;61017;37.812;-122.286;2023-05-07T08:04:21;4.03;;;2.15;;
72882;SDS011;61017;37.812;-122.286;2023-05-07T08:05:52;4.68;;;2.13;;
72882;SDS011;61017;37.812;-122.286;2023-05-07T08:07:24;2.78;;;1.85;;
72882;SDS011;61017;37.812;-122.286;2023-05-07T08:08:55;4.00;;;2.25;;
72882;SDS011;61017;37.812;-122.286;2023-05-07T08:10:27;4.70;;;2.10;;
72882;SDS011;61017;37.812;-122.286;2023-05-07T08:11:59;3.53;;;1.98;;
72882;SDS011;61017;37.812;-122.286;2023-05-07T08:13:31;4.45;;;2.15;;
72882;SDS011;61017;37.812;-122.286;2023-05-07T08:15:02;3.75;;;1.90;;
72882;SDS011;61017;37.812;-122.286;2023-05-07T08:16:34;5.35;;;1.95;;
72882;SDS011;61017;37.812;-122.286;2023-05-07T08:18:06;5.38;;;2.13;;
72882;SDS011;61017;37.812;-122.286;2023-05-07T08:19:38;4.68;;;2.20;;
72882;SDS011;61017;37.812;-122.286;2023-05-07T08:21:09;4.55;;;2.25;;
72882;SDS011;61017;37.812;-122.286;2023-05-07T08:22:41;5.15;;;2.38;;
72882;SDS011;61017;37.812;-122.286;2023-05-07T08:24:16;3.90;;;2.28;;
72882;SDS011;61017;37.812;-122.286;2023-05-07T08:25:48;3.63;;;2.40;;
72882;SDS011;61017;37.812;-122.286;2023-05-07T08:27:20;4.10;;;2.25;;
72882;SDS011;61017;37.812;-122.286;2023-05-07T08:28:51;5.50;;;1.95;;
72882;SDS011;61017;37.812;-122.286;2023-05-07T08:30:26;5.20;;;2.08;;
72882;SDS011;61017;37.812;-122.286;2023-05-07T08:31:58;4.55;;;2.20;;
72882;SDS011;61017;37.812;-122.286;2023-05-07T08:33:29;4.97;;;2.10;;
72882;SDS011;61017;37.812;-122.286;2023-05-07T08:35:01;3.40;;;2.10;;
72882;SDS011;61017;37.812;-122.286;2023-05-07T08:36:33;4.18;;;1.92;;
72882;SDS011;61017;37.812;-122.286;2023-05-07T08:38:05;3.92;;;1.90;;
72882;SDS011;61017;37.812;-122.286;2023-05-07T08:39:39;5.57;;;2.13;;
72882;SDS011;61017;37.812;-122.286;2023-05-07T08:41:11;5.15;;;2.20;;
72882;SDS011;61017;37.812;-122.286;2023-05-07T08:42:42;5.90;;;2.33;;
72882;SDS011;61017;37.812;-122.286;2023-05-07T08:44:15;5.03;;;2.08;;
72882;SDS011;61017;37.812;-122.286;2023-05-07T08:45:51;4.43;;;2.22;;
72882;SDS011;61017;37.812;-122.286;2023-05-07T08:47:29;5.88;;;2.50;;
72882;SDS011;61017;37.812;-122.286;2023-05-07T08:49:04;5.60;;;2.20;;
72882;SDS011;61017;37.812;-122.286;2023-05-07T08:50:36;4.90;;;2.10;;
72882;SDS011;61017;37.812;-122.286;2023-05-07T08:52:08;6.60;;;2.20;;
72882;SDS011;61017;37.812;-122.286;2023-05-07T08:53:40;3.70;;;2.10;;
72882;SDS011;61017;37.812;-122.286;2023-05-07T08:55:12;4.35;;;2.10;;
72882;SDS011;61017;37.812;-122.286;2023-05-07T08:56:44;4.97;;;2.20;;
72882;SDS011;61017;37.812;-122.286;2023-05-07T08:58:16;5.32;;;2.17;;
72882;SDS011;61017;37.812;-122.286;2023-05-07T08:59:47;4.78;;;2.20;;
72882;SDS011;61017;37.812;-122.286;2023-05-07T09:01:19;3.78;;;2.35;;
72882;SDS011;61017;37.812;-122.286;2023-05-07T09:02:52;4.32;;;2.30;;
72882;SDS011;61017;37.812;-122.286;2023-05-07T09:04:23;4.97;;;2.05;;